sensor_id;sensor_type;location;lat;lon;timestamp;pressure;altitude;pressure_sealevel;temperature;humidity
6208;BME280;3137;51.550;7.060;2023-05-19T00:01:48;77983.22;;;-145.94;48.76
6208;BME280;3137;51.550;7.060;2023-05-19T00:04:15;77981.19;;;-145.94;48.84
6208;BME280;3137;51.550;7.060;2023-05-19T00:06:42;77983.22;;;-145.94;49.06
6208;BME280;3137;51.550;7.060;2023-05-19T00:09:10;77989.34;;;-145.94;48.95
6208;BME280;3137;51.550;7.060;2023-05-19T00:11:38;77985.28;;;-145.94;48.94
6208;BME280;3137;51.550;7.060;2023-05-19T00:14:07;77991.38;;;-145.94;49.39
6208;BME280;3137;51.550;7.060;2023-05-19T00:16:35;78001.59;;;-145.94;49.30
6208;BME280;3137;51.550;7.060;2023-05-19T00:19:05;77997.50;;;-145.94;49.39
6208;BME280;3137;51.550;7.060;2023-05-19T00:21:37;78001.59;;;-145.94;49.45
6208;BME280;3137;51.550;7.060;2023-05-19T00:24:04;78007.69;;;-145.94;49.72
6208;BME280;3137;51.550;7.060;2023-05-19T00:26:31;78015.88;;;-145.94;49.71
6208;BME280;3137;51.550;7.060;2023-05-19T00:29:02;78021.97;;;-145.94;49.77
6208;BME280;3137;51.550;7.060;2023-05-19T00:31:29;78036.25;;;-145.94;50.03
6208;BME280;3137;51.550;7.060;2023-05-19T00:33:56;78032.19;;;-145.94;49.97
6208;BME280;3137;51.550;7.060;2023-05-19T00:36:24;78038.31;;;-145.94;50.08
6208;BME280;3137;51.550;7.060;2023-05-19T00:38:50;78036.25;;;-145.94;50.15
6208;BME280;3137;51.550;7.060;2023-05-19T00:41:17;78044.41;;;-145.94;50.35
6208;BME280;3137;51.550;7.060;2023-05-19T00:43:44;78048.50;;;-145.94;50.34
6208;BME280;3137;51.550;7.060;2023-05-19T00:46:10;78054.63;;;-145.94;50.43
6208;BME280;3137;51.550;7.060;2023-05-19T00:48:37;78050.53;;;-145.94;50.53
6208;BME280;3137;51.550;7.060;2023-05-19T00:51:04;78058.69;;;-145.94;50.53
6208;BME280;3137;51.550;7.060;2023-05-19T00:53:32;78056.66;;;-145.94;50.62
6208;BME280;3137;51.550;7.060;2023-05-19T00:56:00;78058.69;;;-145.94;50.79
6208;BME280;3137;51.550;7.060;2023-05-19T00:58:29;78062.78;;;-145.94;50.95
6208;BME280;3137;51.550;7.060;2023-05-19T01:00:57;78064.81;;;-145.94;50.93
6208;BME280;3137;51.550;7.060;2023-05-19T01:03:34;78072.97;;;-145.94;50.87
6208;BME280;3137;51.550;7.060;2023-05-19T01:06:04;78068.91;;;-145.94;51.13
6208;BME280;3137;51.550;7.060;2023-05-19T01:08:31;78075.03;;;-145.94;51.20
6208;BME280;3137;51.550;7.060;2023-05-19T01:10:59;78077.06;;;-145.94;51.12
6208;BME280;3137;51.550;7.060;2023-05-19T01:13:29;78070.94;;;-145.94;51.02
6208;BME280;3137;51.550;7.060;2023-05-19T01:16:04;78075.03;;;-145.94;51.26
6208;BME280;3137;51.550;7.060;2023-05-19T01:21:23;78068.91;;;-145.94;51.32
6208;BME280;3137;51.550;7.060;2023-05-19T01:24:04;78093.38;;;-145.94;51.32
6208;BME280;3137;51.550;7.060;2023-05-19T01:29:40;78085.22;;;-145.94;51.69
6208;BME280;3137;51.550;7.060;2023-05-19T01:32:09;78091.34;;;-145.94;51.64
6208;BME280;3137;51.550;7.060;2023-05-19T01:34:41;78089.28;;;-145.94;51.36
6208;BME280;3137;51.550;7.060;2023-05-19T01:37:08;78095.41;;;-145.94;51.60
6208;BME280;3137;51.550;7.060;2023-05-19T01:39:35;78097.47;;;-145.94;51.90
6208;BME280;3137;51.550;7.060;2023-05-19T01:42:03;78101.53;;;-145.94;52.04
6208;BME280;3137;51.550;7.060;2023-05-19T01:44:30;78103.56;;;-145.94;52.05
6208;BME280;3137;51.550;7.060;2023-05-19T01:46:58;78115.81;;;-145.94;52.20
6208;BME280;3137;51.550;7.060;2023-05-19T01:49:25;78123.97;;;-145.94;52.41
6208;BME280;3137;51.550;7.060;2023-05-19T01:51:52;78128.06;;;-145.94;52.46
6208;BME280;3137;51.550;7.060;2023-05-19T01:54:20;78128.06;;;-145.94;52.55
6208;BME280;3137;51.550;7.060;2023-05-19T01:57:13;78134.16;;;-145.94;52.57
6208;BME280;3137;51.550;7.060;2023-05-19T02:00:03;78138.25;;;-145.94;52.67
6208;BME280;3137;51.550;7.060;2023-05-19T02:08:03;78144.38;;;-145.94;53.01
6208;BME280;3137;51.550;7.060;2023-05-19T02:10:32;78148.44;;;-145.94;52.88
6208;BME280;3137;51.550;7.060;2023-05-19T02:13:03;78158.66;;;-145.94;52.77
6208;BME280;3137;51.550;7.060;2023-05-19T02:15:41;78156.59;;;-145.94;52.99
6208;BME280;3137;51.550;7.060;2023-05-19T02:18:11;78166.81;;;-145.94;53.34
6208;BME280;3137;51.550;7.060;2023-05-19T02:20:38;78164.78;;;-145.94;53.43
6208;BME280;3137;51.550;7.060;2023-05-19T02:23:05;78172.94;;;-145.94;53.34
6208;BME280;3137;51.550;7.060;2023-05-19T02:25:32;78172.94;;;-145.94;53.36
6208;BME280;3137;51.550;7.060;2023-05-19T02:27:59;78177.00;;;-145.94;53.59
6208;BME280;3137;51.550;7.060;2023-05-19T02:30:28;78185.16;;;-145.94;53.67
6208;BME280;3137;51.550;7.060;2023-05-19T02:32:58;78181.09;;;-145.94;53.48
6208;BME280;3137;51.550;7.060;2023-05-19T02:35:25;78179.06;;;-145.94;53.54
6208;BME280;3137;51.550;7.060;2023-05-19T02:37:53;78187.22;;;-145.94;53.69
6208;BME280;3137;51.550;7.060;2023-05-19T02:40:20;78187.22;;;-145.94;53.71
6208;BME280;3137;51.550;7.060;2023-05-19T02:42:46;78187.22;;;-145.94;53.79
6208;BME280;3137;51.550;7.060;2023-05-19T02:45:13;78187.22;;;-145.94;54.07
6208;BME280;3137;51.550;7.060;2023-05-19T02:47:39;78187.22;;;-145.94;53.95
6208;BME280;3137;51.550;7.060;2023-05-19T02:50:07;78191.28;;;-145.94;53.91
6208;BME280;3137;51.550;7.060;2023-05-19T02:52:33;78195.38;;;-145.94;54.36
6208;BME280;3137;51.550;7.060;2023-05-19T02:55:00;78195.38;;;-145.94;54.49
6208;BME280;3137;51.550;7.060;2023-05-19T02:57:28;78189.25;;;-145.94;54.06
6208;BME280;3137;51.550;7.060;2023-05-19T02:59:56;78195.38;;;-145.94;54.26
6208;BME280;3137;51.550;7.060;2023-05-19T03:02:23;78189.25;;;-145.94;54.33
6208;BME280;3137;51.550;7.060;2023-05-19T03:04:49;78201.50;;;-145.94;54.54
6208;BME280;3137;51.550;7.060;2023-05-19T03:07:16;78213.72;;;-145.94;54.63
6208;BME280;3137;51.550;7.060;2023-05-19T03:09:43;78209.66;;;-145.94;54.57
6208;BME280;3137;51.550;7.060;2023-05-19T03:12:09;78209.66;;;-145.94;54.96
6208;BME280;3137;51.550;7.060;2023-05-19T03:14:36;78225.97;;;-145.94;55.06
6208;BME280;3137;51.550;7.060;2023-05-19T03:17:04;78232.09;;;-145.94;55.02
6208;BME280;3137;51.550;7.060;2023-05-19T03:19:33;78240.25;;;-145.94;54.97
6208;BME280;3137;51.550;7.060;2023-05-19T03:21:59;78236.16;;;-145.94;55.33
6208;BME280;3137;51.550;7.060;2023-05-19T03:24:26;78246.38;;;-145.94;55.23
6208;BME280;3137;51.550;7.060;2023-05-19T03:26:53;78242.28;;;-145.94;55.50
6208;BME280;3137;51.550;7.060;2023-05-19T03:29:20;78248.41;;;-145.94;55.49
6208;BME280;3137;51.550;7.060;2023-05-19T03:31:47;78252.47;;;-145.94;55.54
6208;BME280;3137;51.550;7.060;2023-05-19T03:34:15;78254.53;;;-145.94;55.49
6208;BME280;3137;51.550;7.060;2023-05-19T03:36:41;78252.47;;;-145.94;55.50
6208;BME280;3137;51.550;7.060;2023-05-19T03:39:13;78250.44;;;-145.94;55.67
6208;BME280;3137;51.550;7.060;2023-05-19T03:41:39;78258.59;;;-145.94;56.09
6208;BME280;3137;51.550;7.060;2023-05-19T03:44:06;78252.47;;;-145.94;56.15
6208;BME280;3137;51.550;7.060;2023-05-19T03:46:32;78260.66;;;-145.94;55.99
6208;BME280;3137;51.550;7.060;2023-05-19T03:49:27;78260.66;;;-145.94;56.17
6208;BME280;3137;51.550;7.060;2023-05-19T03:51:56;78264.72;;;-145.94;56.08
6208;BME280;3137;51.550;7.060;2023-05-19T03:54:31;78262.69;;;-145.94;56.29
6208;BME280;3137;51.550;7.060;2023-05-19T03:56:57;78264.72;;;-145.94;56.12
6208;BME280;3137;51.550;7.060;2023-05-19T03:59:23;78270.84;;;-145.94;56.39
6208;BME280;3137;51.550;7.060;2023-05-19T04:01:50;78270.84;;;-145.94;56.34
6208;BME280;3137;51.550;7.060;2023-05-19T04:04:18;78266.75;;;-145.94;56.40
6208;BME280;3137;51.550;7.060;2023-05-19T04:06:44;78270.84;;;-145.94;56.61
6208;BME280;3137;51.550;7.060;2023-05-19T04:09:12;78268.81;;;-145.94;56.79
6208;BME280;3137;51.550;7.060;2023-05-19T04:11:39;78266.75;;;-145.94;56.82
6208;BME280;3137;51.550;7.060;2023-05-19T04:14:06;78266.75;;;-145.94;56.76
6208;BME280;3137;51.550;7.060;2023-05-19T04:16:34;78270.84;;;-145.94;56.72
6208;BME280;3137;51.550;7.060;2023-05-19T04:19:01;78270.84;;;-145.94;56.59
6208;BME280;3137;51.550;7.060;2023-05-19T04:21:27;78272.88;;;-145.94;56.97
6208;BME280;3137;51.550;7.060;2023-05-19T04:23:54;78270.84;;;-145.94;56.82
6208;BME280;3137;51.550;7.060;2023-05-19T04:26:21;78266.75;;;-145.94;56.57
6208;BME280;3137;51.550;7.060;2023-05-19T04:28:48;78264.72;;;-145.94;56.45
6208;BME280;3137;51.550;7.060;2023-05-19T04:31:15;78256.56;;;-145.94;56.35
6208;BME280;3137;51.550;7.060;2023-05-19T04:33:42;78258.59;;;-145.94;56.30
6208;BME280;3137;51.550;7.060;2023-05-19T04:36:09;78258.59;;;-145.94;56.73
6208;BME280;3137;51.550;7.060;2023-05-19T04:38:39;78258.59;;;-145.94;56.28
6208;BME280;3137;51.550;7.060;2023-05-19T04:41:07;78250.44;;;-145.94;56.61
6208;BME280;3137;51.550;7.060;2023-05-19T04:43:38;78248.41;;;-145.94;56.27
6208;BME280;3137;51.550;7.060;2023-05-19T04:46:07;78248.41;;;-145.94;56.81
6208;BME280;3137;51.550;7.060;2023-05-19T04:48:39;78242.28;;;-145.94;56.75
6208;BME280;3137;51.550;7.060;2023-05-19T04:51:06;78221.88;;;-145.94;56.48
6208;BME280;3137;51.550;7.060;2023-05-19T04:53:32;78221.88;;;-145.94;55.95
6208;BME280;3137;51.550;7.060;2023-05-19T04:56:00;78221.88;;;-145.94;56.46
6208;BME280;3137;51.550;7.060;2023-05-19T04:58:29;78221.88;;;-145.94;56.14
6208;BME280;3137;51.550;7.060;2023-05-19T05:00:55;78203.53;;;-145.94;56.22
6208;BME280;3137;51.550;7.060;2023-05-19T05:03:23;78199.44;;;-145.94;56.07
6208;BME280;3137;51.550;7.060;2023-05-19T05:05:51;78185.16;;;-145.94;56.00
6208;BME280;3137;51.550;7.060;2023-05-19T05:08:18;78174.97;;;-145.94;56.02
6208;BME280;3137;51.550;7.060;2023-05-19T05:10:49;78170.88;;;-145.94;56.02
6208;BME280;3137;51.550;7.060;2023-05-19T05:13:20;78168.84;;;-145.94;55.58
6208;BME280;3137;51.550;7.060;2023-05-19T05:15:48;78154.56;;;-145.94;55.51
6208;BME280;3137;51.550;7.060;2023-05-19T05:18:14;78148.44;;;-145.94;55.16
6208;BME280;3137;51.550;7.060;2023-05-19T05:20:42;78148.44;;;-145.94;55.34
6208;BME280;3137;51.550;7.060;2023-05-19T05:23:10;78144.38;;;-145.94;55.23
6208;BME280;3137;51.550;7.060;2023-05-19T05:25:42;78130.09;;;-145.94;55.26
6208;BME280;3137;51.550;7.060;2023-05-19T05:28:10;78134.16;;;-145.94;55.07
6208;BME280;3137;51.550;7.060;2023-05-19T05:30:36;78109.69;;;-145.94;54.88
6208;BME280;3137;51.550;7.060;2023-05-19T05:33:05;78109.69;;;-145.94;54.65
6208;BME280;3137;51.550;7.060;2023-05-19T05:35:35;78085.22;;;-145.94;55.00
6208;BME280;3137;51.550;7.060;2023-05-19T05:38:03;78081.13;;;-145.94;54.43
6208;BME280;3137;51.550;7.060;2023-05-19T05:40:29;78060.75;;;-145.94;54.21
6208;BME280;3137;51.550;7.060;2023-05-19T05:42:56;78046.47;;;-145.94;54.89
6208;BME280;3137;51.550;7.060;2023-05-19T05:45:27;78042.38;;;-145.94;53.46
6208;BME280;3137;51.550;7.060;2023-05-19T05:47:54;78036.25;;;-145.94;53.01
6208;BME280;3137;51.550;7.060;2023-05-19T05:50:21;78011.78;;;-145.94;53.45
6208;BME280;3137;51.550;7.060;2023-05-19T05:52:49;77997.50;;;-145.94;53.56
6208;BME280;3137;51.550;7.060;2023-05-19T05:55:17;77987.31;;;-145.94;53.37
6208;BME280;3137;51.550;7.060;2023-05-19T05:57:43;77966.91;;;-145.94;53.04
6208;BME280;3137;51.550;7.060;2023-05-19T06:00:10;77956.72;;;-145.94;53.07
6208;BME280;3137;51.550;7.060;2023-05-19T06:02:50;77940.41;;;-145.94;52.92
6208;BME280;3137;51.550;7.060;2023-05-19T06:05:18;77920.00;;;-145.94;52.20
6208;BME280;3137;51.550;7.060;2023-05-19T06:07:46;77920.00;;;-145.94;51.32
6208;BME280;3137;51.550;7.060;2023-05-19T06:10:18;77909.78;;;-145.94;51.06
6208;BME280;3137;51.550;7.060;2023-05-19T06:12:45;77899.59;;;-145.94;51.13
6208;BME280;3137;51.550;7.060;2023-05-19T06:15:12;77883.28;;;-145.94;51.20
6208;BME280;3137;51.550;7.060;2023-05-19T06:17:41;77879.19;;;-145.94;50.82
6208;BME280;3137;51.550;7.060;2023-05-19T06:20:08;77860.84;;;-145.94;50.29
6208;BME280;3137;51.550;7.060;2023-05-19T06:22:35;77832.28;;;-145.94;50.77
6208;BME280;3137;51.550;7.060;2023-05-19T06:25:04;77818.00;;;-145.94;49.90
6208;BME280;3137;51.550;7.060;2023-05-19T06:27:32;77805.78;;;-145.94;50.29
6208;BME280;3137;51.550;7.060;2023-05-19T06:30:01;77797.63;;;-145.94;50.28
6208;BME280;3137;51.550;7.060;2023-05-19T06:32:31;77779.25;;;-145.94;49.67
6208;BME280;3137;51.550;7.060;2023-05-19T06:34:58;77771.09;;;-145.94;49.73
6208;BME280;3137;51.550;7.060;2023-05-19T06:37:25;77756.81;;;-145.94;48.51
6208;BME280;3137;51.550;7.060;2023-05-19T06:39:52;77746.63;;;-145.94;48.38
6208;BME280;3137;51.550;7.060;2023-05-19T06:42:19;77750.69;;;-145.94;48.87
6208;BME280;3137;51.550;7.060;2023-05-19T06:44:55;77722.16;;;-145.94;48.98
6208;BME280;3137;51.550;7.060;2023-05-19T06:47:22;77714.00;;;-145.94;49.02
6208;BME280;3137;51.550;7.060;2023-05-19T06:49:49;77691.56;;;-145.94;49.11
6208;BME280;3137;51.550;7.060;2023-05-19T06:52:23;77679.31;;;-145.94;48.08
6208;BME280;3137;51.550;7.060;2023-05-19T06:54:49;77667.06;;;-145.94;47.82
6208;BME280;3137;51.550;7.060;2023-05-19T06:57:16;77663.00;;;-145.94;47.56
6208;BME280;3137;51.550;7.060;2023-05-19T06:59:43;77640.56;;;-145.94;47.13
6208;BME280;3137;51.550;7.060;2023-05-19T07:02:12;77650.75;;;-145.94;46.36
6208;BME280;3137;51.550;7.060;2023-05-19T07:04:39;77626.28;;;-145.94;47.17
6208;BME280;3137;51.550;7.060;2023-05-19T07:07:06;77616.09;;;-145.94;46.51
6208;BME280;3137;51.550;7.060;2023-05-19T07:09:33;77609.97;;;-145.94;46.35
6208;BME280;3137;51.550;7.060;2023-05-19T07:12:01;77607.94;;;-145.94;45.75
6208;BME280;3137;51.550;7.060;2023-05-19T07:14:28;77589.56;;;-145.94;46.43
6208;BME280;3137;51.550;7.060;2023-05-19T07:16:55;77581.41;;;-145.94;46.66
6208;BME280;3137;51.550;7.060;2023-05-19T07:19:22;77569.19;;;-145.94;46.59
6208;BME280;3137;51.550;7.060;2023-05-19T07:21:50;77565.09;;;-145.94;46.03
6208;BME280;3137;51.550;7.060;2023-05-19T07:24:16;77554.91;;;-145.94;45.74
6208;BME280;3137;51.550;7.060;2023-05-19T07:26:43;77540.63;;;-145.94;45.94
6208;BME280;3137;51.550;7.060;2023-05-19T07:29:10;77520.22;;;-145.94;45.69
6208;BME280;3137;51.550;7.060;2023-05-19T07:31:36;77520.22;;;-145.94;44.40
6208;BME280;3137;51.550;7.060;2023-05-19T07:34:03;77501.88;;;-145.94;45.13
6208;BME280;3137;51.550;7.060;2023-05-19T07:36:29;77485.56;;;-145.94;44.52
6208;BME280;3137;51.550;7.060;2023-05-19T07:38:56;77483.50;;;-145.94;44.97
6208;BME280;3137;51.550;7.060;2023-05-19T07:41:23;77483.50;;;-145.94;44.65
6208;BME280;3137;51.550;7.060;2023-05-19T07:43:49;77469.25;;;-145.94;43.81
6208;BME280;3137;51.550;7.060;2023-05-19T07:46:16;77477.41;;;-145.94;43.92
6208;BME280;3137;51.550;7.060;2023-05-19T07:48:42;77473.31;;;-145.94;44.38
6208;BME280;3137;51.550;7.060;2023-05-19T07:51:11;77463.13;;;-145.94;44.71
6208;BME280;3137;51.550;7.060;2023-05-19T07:53:37;77442.72;;;-145.94;44.21
6208;BME280;3137;51.550;7.060;2023-05-19T07:56:04;77432.53;;;-145.94;44.13
6208;BME280;3137;51.550;7.060;2023-05-19T07:58:31;77424.38;;;-145.94;44.22
6208;BME280;3137;51.550;7.060;2023-05-19T08:00:57;77412.13;;;-145.94;44.04
6208;BME280;3137;51.550;7.060;2023-05-19T08:03:25;77391.75;;;-145.94;43.88
6208;BME280;3137;51.550;7.060;2023-05-19T08:05:52;77383.59;;;-145.94;43.29
6208;BME280;3137;51.550;7.060;2023-05-19T08:08:18;77383.59;;;-145.94;43.25
6208;BME280;3137;51.550;7.060;2023-05-19T08:10:45;77365.22;;;-145.94;42.62
6208;BME280;3137;51.550;7.060;2023-05-19T08:13:11;77365.22;;;-145.94;42.95
6208;BME280;3137;51.550;7.060;2023-05-19T08:15:38;77361.16;;;-145.94;42.11
6208;BME280;3137;51.550;7.060;2023-05-19T08:18:04;77344.84;;;-145.94;42.59
6208;BME280;3137;51.550;7.060;2023-05-19T08:20:31;77330.56;;;-145.94;43.11
6208;BME280;3137;51.550;7.060;2023-05-19T08:22:59;77320.34;;;-145.94;42.37
6208;BME280;3137;51.550;7.060;2023-05-19T08:25:26;77314.25;;;-145.94;41.45
6208;BME280;3137;51.550;7.060;2023-05-19T08:27:52;77297.94;;;-145.94;43.08
6208;BME280;3137;51.550;7.060;2023-05-19T08:30:19;77287.72;;;-145.94;41.21
6208;BME280;3137;51.550;7.060;2023-05-19T08:32:45;77285.69;;;-145.94;40.64
6208;BME280;3137;51.550;7.060;2023-05-19T08:35:12;77283.66;;;-145.94;40.06
6208;BME280;3137;51.550;7.060;2023-05-19T08:37:39;77275.50;;;-145.94;40.63
6208;BME280;3137;51.550;7.060;2023-05-19T08:40:06;77269.38;;;-145.94;40.31
6208;BME280;3137;51.550;7.060;2023-05-19T08:42:34;77279.56;;;-145.94;40.06
6208;BME280;3137;51.550;7.060;2023-05-19T08:45:01;77261.22;;;-145.94;41.06
6208;BME280;3137;51.550;7.060;2023-05-19T08:47:28;77253.06;;;-145.94;40.11
6208;BME280;3137;51.550;7.060;2023-05-19T08:50:02;77240.81;;;-145.94;40.52
6208;BME280;3137;51.550;7.060;2023-05-19T08:57:54;77210.22;;;-145.94;39.07
6208;BME280;3137;51.550;7.060;2023-05-19T09:00:21;77191.88;;;-145.94;41.20
6208;BME280;3137;51.550;7.060;2023-05-19T09:02:49;77177.59;;;-145.94;39.99
6208;BME280;3137;51.550;7.060;2023-05-19T09:05:31;77159.25;;;-145.94;39.50
6208;BME280;3137;51.550;7.060;2023-05-19T09:07:58;77140.91;;;-145.94;39.14
6208;BME280;3137;51.550;7.060;2023-05-19T09:10:27;77157.22;;;-145.94;37.34
6208;BME280;3137;51.550;7.060;2023-05-19T09:12:54;77177.59;;;-145.94;36.59
6208;BME280;3137;51.550;7.060;2023-05-19T09:15:25;77181.69;;;-145.94;37.70
6208;BME280;3137;51.550;7.060;2023-05-19T09:18:05;77175.56;;;-145.94;37.09
6208;BME280;3137;51.550;7.060;2023-05-19T09:20:36;77185.75;;;-145.94;37.77
6208;BME280;3137;51.550;7.060;2023-05-19T09:23:03;77208.19;;;-145.94;36.95
6208;BME280;3137;51.550;7.060;2023-05-19T09:25:30;77206.16;;;-145.94;36.80
6208;BME280;3137;51.550;7.060;2023-05-19T09:27:57;77202.06;;;-145.94;36.67
6208;BME280;3137;51.550;7.060;2023-05-19T09:30:24;77179.63;;;-145.94;37.45
6208;BME280;3137;51.550;7.060;2023-05-19T09:32:51;77179.63;;;-145.94;36.78
6208;BME280;3137;51.550;7.060;2023-05-19T09:35:17;77159.25;;;-145.94;37.28
6208;BME280;3137;51.550;7.060;2023-05-19T09:37:45;77155.16;;;-145.94;36.87
6208;BME280;3137;51.550;7.060;2023-05-19T09:40:13;77140.91;;;-145.94;37.43
6208;BME280;3137;51.550;7.060;2023-05-19T09:42:40;77136.81;;;-145.94;36.63
6208;BME280;3137;51.550;7.060;2023-05-19T09:45:07;77124.56;;;-145.94;36.72
6208;BME280;3137;51.550;7.060;2023-05-19T09:47:35;77122.53;;;-145.94;36.13
6208;BME280;3137;51.550;7.060;2023-05-19T09:50:06;77091.94;;;-145.94;37.34
6208;BME280;3137;51.550;7.060;2023-05-19T09:52:37;77091.94;;;-145.94;36.65
6208;BME280;3137;51.550;7.060;2023-05-19T09:55:05;77102.16;;;-145.94;36.53
6208;BME280;3137;51.550;7.060;2023-05-19T09:57:35;77087.88;;;-145.94;37.45
6208;BME280;3137;51.550;7.060;2023-05-19T10:00:06;77081.75;;;-145.94;36.64
6208;BME280;3137;51.550;7.060;2023-05-19T10:02:45;77069.50;;;-145.94;36.98
6208;BME280;3137;51.550;7.060;2023-05-19T10:05:13;77069.50;;;-145.94;35.70
6208;BME280;3137;51.550;7.060;2023-05-19T10:07:43;77061.34;;;-145.94;36.26
6208;BME280;3137;51.550;7.060;2023-05-19T10:10:11;77051.16;;;-145.94;37.00
6208;BME280;3137;51.550;7.060;2023-05-19T10:12:39;77043.00;;;-145.94;35.68
6208;BME280;3137;51.550;7.060;2023-05-19T10:15:08;77038.94;;;-145.94;36.81
6208;BME280;3137;51.550;7.060;2023-05-19T10:17:40;77014.47;;;-145.94;38.60
6208;BME280;3137;51.550;7.060;2023-05-19T10:20:15;77010.38;;;-145.94;37.30
6208;BME280;3137;51.550;7.060;2023-05-19T10:22:44;77010.38;;;-145.94;36.13
6208;BME280;3137;51.550;7.060;2023-05-19T10:25:11;77022.63;;;-145.94;35.77
6208;BME280;3137;51.550;7.060;2023-05-19T10:30:17;77036.88;;;-145.94;35.97
6208;BME280;3137;51.550;7.060;2023-05-19T10:32:45;77026.69;;;-145.94;37.82
6208;BME280;3137;51.550;7.060;2023-05-19T10:37:57;77020.56;;;-145.94;36.11
6208;BME280;3137;51.550;7.060;2023-05-19T10:40:52;77008.34;;;-145.94;36.43
6208;BME280;3137;51.550;7.060;2023-05-19T10:43:40;76985.91;;;-145.94;36.84
6208;BME280;3137;51.550;7.060;2023-05-19T10:46:10;76981.81;;;-145.94;36.74
6208;BME280;3137;51.550;7.060;2023-05-19T10:48:36;76971.63;;;-145.94;38.11
6208;BME280;3137;51.550;7.060;2023-05-19T10:51:03;76965.50;;;-145.94;37.07
6208;BME280;3137;51.550;7.060;2023-05-19T10:53:31;76965.50;;;-145.94;36.16
6208;BME280;3137;51.550;7.060;2023-05-19T10:56:00;76973.66;;;-145.94;36.17
6208;BME280;3137;51.550;7.060;2023-05-19T11:01:06;76965.50;;;-145.94;36.09
6208;BME280;3137;51.550;7.060;2023-05-19T11:03:43;76949.19;;;-145.94;36.69
6208;BME280;3137;51.550;7.060;2023-05-19T11:06:23;76920.66;;;-145.94;37.71
6208;BME280;3137;51.550;7.060;2023-05-19T11:08:54;76922.69;;;-145.94;34.74
6208;BME280;3137;51.550;7.060;2023-05-19T11:11:22;76930.84;;;-145.94;34.75
6208;BME280;3137;51.550;7.060;2023-05-19T11:13:55;76916.56;;;-145.94;36.92
6208;BME280;3137;51.550;7.060;2023-05-19T11:16:29;76934.94;;;-145.94;35.16
6208;BME280;3137;51.550;7.060;2023-05-19T11:19:00;76922.69;;;-145.94;35.57
6208;BME280;3137;51.550;7.060;2023-05-19T11:21:51;76912.50;;;-145.94;35.07
6208;BME280;3137;51.550;7.060;2023-05-19T11:27:33;76898.22;;;-145.94;34.90
6208;BME280;3137;51.550;7.060;2023-05-19T11:30:09;76881.91;;;-145.94;35.28
6208;BME280;3137;51.550;7.060;2023-05-19T11:32:41;76892.09;;;-145.94;35.02
6208;BME280;3137;51.550;7.060;2023-05-19T11:35:09;76896.19;;;-145.94;33.26
6208;BME280;3137;51.550;7.060;2023-05-19T11:37:36;76900.25;;;-145.94;34.03
6208;BME280;3137;51.550;7.060;2023-05-19T11:40:03;76902.28;;;-145.94;33.54
6208;BME280;3137;51.550;7.060;2023-05-19T11:42:34;76902.28;;;-145.94;33.33
6208;BME280;3137;51.550;7.060;2023-05-19T11:45:01;76902.28;;;-145.94;34.14
6208;BME280;3137;51.550;7.060;2023-05-19T11:47:29;76908.41;;;-145.94;34.14
6208;BME280;3137;51.550;7.060;2023-05-19T11:50:12;76896.19;;;-145.94;33.09
6208;BME280;3137;51.550;7.060;2023-05-19T11:52:43;76906.38;;;-145.94;33.24
6208;BME280;3137;51.550;7.060;2023-05-19T11:55:14;76906.38;;;-145.94;34.11
6208;BME280;3137;51.550;7.060;2023-05-19T11:57:49;76888.03;;;-145.94;34.70
6208;BME280;3137;51.550;7.060;2023-05-19T12:00:34;76881.91;;;-145.94;33.77
6208;BME280;3137;51.550;7.060;2023-05-19T12:03:03;76879.88;;;-145.94;33.35
6208;BME280;3137;51.550;7.060;2023-05-19T12:05:29;76877.81;;;-145.94;33.64
6208;BME280;3137;51.550;7.060;2023-05-19T12:08:01;76877.81;;;-145.94;33.69
6208;BME280;3137;51.550;7.060;2023-05-19T12:10:30;76873.75;;;-145.94;34.24
6208;BME280;3137;51.550;7.060;2023-05-19T12:12:58;76879.88;;;-145.94;33.81
6208;BME280;3137;51.550;7.060;2023-05-19T12:15:26;76865.59;;;-145.94;33.67
6208;BME280;3137;51.550;7.060;2023-05-19T12:17:57;76851.31;;;-145.94;33.98
6208;BME280;3137;51.550;7.060;2023-05-19T12:20:25;76832.97;;;-145.94;33.99
6208;BME280;3137;51.550;7.060;2023-05-19T12:22:54;76832.97;;;-145.94;33.93
6208;BME280;3137;51.550;7.060;2023-05-19T12:25:22;76835.00;;;-145.94;32.63
6208;BME280;3137;51.550;7.060;2023-05-19T12:27:49;76826.84;;;-145.94;32.71
6208;BME280;3137;51.550;7.060;2023-05-19T12:30:24;76808.50;;;-145.94;33.12
6208;BME280;3137;51.550;7.060;2023-05-19T12:32:52;76804.41;;;-145.94;33.77
6208;BME280;3137;51.550;7.060;2023-05-19T12:35:19;76812.56;;;-145.94;33.78
6208;BME280;3137;51.550;7.060;2023-05-19T12:37:45;76810.53;;;-145.94;34.09
6208;BME280;3137;51.550;7.060;2023-05-19T12:40:15;76804.41;;;-145.94;34.73
6208;BME280;3137;51.550;7.060;2023-05-19T12:42:45;76804.41;;;-145.94;33.96
6208;BME280;3137;51.550;7.060;2023-05-19T12:45:13;76820.72;;;-145.94;34.25
6208;BME280;3137;51.550;7.060;2023-05-19T12:47:40;76810.53;;;-145.94;33.84
6208;BME280;3137;51.550;7.060;2023-05-19T12:50:08;76808.50;;;-145.94;33.61
6208;BME280;3137;51.550;7.060;2023-05-19T12:52:41;76810.53;;;-145.94;33.61
6208;BME280;3137;51.550;7.060;2023-05-19T12:55:09;76794.22;;;-145.94;34.45
6208;BME280;3137;51.550;7.060;2023-05-19T12:57:38;76782.00;;;-145.94;33.79
6208;BME280;3137;51.550;7.060;2023-05-19T13:00:07;76769.75;;;-145.94;33.80
6208;BME280;3137;51.550;7.060;2023-05-19T13:05:20;76761.59;;;-145.94;33.56
6208;BME280;3137;51.550;7.060;2023-05-19T13:07:57;76755.47;;;-145.94;33.44
6208;BME280;3137;51.550;7.060;2023-05-19T13:10:25;76755.47;;;-145.94;33.10
6208;BME280;3137;51.550;7.060;2023-05-19T13:12:55;76763.63;;;-145.94;32.58
6208;BME280;3137;51.550;7.060;2023-05-19T13:15:23;76763.63;;;-145.94;32.97
6208;BME280;3137;51.550;7.060;2023-05-19T13:17:51;76759.56;;;-145.94;33.85
6208;BME280;3137;51.550;7.060;2023-05-19T13:20:20;76765.66;;;-145.94;32.45
6208;BME280;3137;51.550;7.060;2023-05-19T13:22:47;76745.28;;;-145.94;32.88
6208;BME280;3137;51.550;7.060;2023-05-19T13:25:14;76755.47;;;-145.94;32.24
6208;BME280;3137;51.550;7.060;2023-05-19T13:27:40;76761.59;;;-145.94;32.28
6208;BME280;3137;51.550;7.060;2023-05-19T13:30:07;76753.44;;;-145.94;32.80
6208;BME280;3137;51.550;7.060;2023-05-19T13:32:34;76735.09;;;-145.94;33.76
6208;BME280;3137;51.550;7.060;2023-05-19T13:35:00;76747.31;;;-145.94;33.28
6208;BME280;3137;51.550;7.060;2023-05-19T13:37:27;76749.34;;;-145.94;33.72
6208;BME280;3137;51.550;7.060;2023-05-19T13:39:54;76739.16;;;-145.94;33.35